createdAt,value
2022-11-07T00:01:40.335Z,69.03
2022-11-07T00:04:07.204Z,69.45
2022-11-07T00:06:34.024Z,69.06
2022-11-07T00:09:00.864Z,69.23
2022-11-07T00:11:27.648Z,69.23
2022-11-07T00:13:54.566Z,69.59
2022-11-07T00:16:21.434Z,69.41
2022-11-07T00:18:48.266Z,69.54
2022-11-07T00:21:15.055Z,69.49
2022-11-07T00:23:43.106Z,69.59
2022-11-07T00:26:13.226Z,69.93
2022-11-07T00:28:43.193Z,69.96
2022-11-07T00:31:12.766Z,70.26
2022-11-07T00:33:40.750Z,70.20
2022-11-07T00:36:09.897Z,70.29
2022-11-07T00:38:36.860Z,70.12
2022-11-07T00:41:06.285Z,70.21
2022-11-07T00:43:34.140Z,70.25
2022-11-07T00:46:03.657Z,70.29
2022-11-07T00:48:31.075Z,70.17
2022-11-07T00:50:58.308Z,70.25
2022-11-07T00:53:25.078Z,70.32
2022-11-07T00:55:51.863Z,70.22
2022-11-07T00:58:18.648Z,70.23
2022-11-07T01:00:45.506Z,70.73
2022-11-07T01:03:30.719Z,70.89
2022-11-07T01:05:59.867Z,70.50
2022-11-07T01:08:27.592Z,70.57
2022-11-07T01:10:55.379Z,70.48
2022-11-07T01:13:22.702Z,70.32
2022-11-07T01:15:49.939Z,70.13
2022-11-07T01:18:16.750Z,70.21
2022-11-07T01:20:43.623Z,69.94
2022-11-07T01:23:10.529Z,69.81
2022-11-07T01:25:39.073Z,69.87
2022-11-07T01:28:06.591Z,69.66
2022-11-07T01:30:33.528Z,69.48
2022-11-07T01:33:00.330Z,69.61
2022-11-07T01:35:27.115Z,69.44
2022-11-07T01:37:53.924Z,69.30
2022-11-07T01:40:20.809Z,69.54
2022-11-07T01:42:47.790Z,69.59
2022-11-07T01:45:24.778Z,69.52
2022-11-07T01:47:53.410Z,70.10
2022-11-07T01:50:23.893Z,70.14
2022-11-07T01:52:52.994Z,70.10
2022-11-07T01:55:37.977Z,70.24
2022-11-07T01:58:08.378Z,70.55
2022-11-07T02:00:37.021Z,70.93
2022-11-07T02:03:13.213Z,70.88
2022-11-07T02:05:48.464Z,70.82
2022-11-07T02:08:16.390Z,70.86
2022-11-07T02:10:44.424Z,70.85
2022-11-07T02:13:19.720Z,71.34
2022-11-07T02:15:46.546Z,70.59
2022-11-07T02:18:13.571Z,70.37
2022-11-07T02:20:40.421Z,70.13
2022-11-07T02:23:22.324Z,70.46
2022-11-07T02:25:49.212Z,70.87
2022-11-07T02:28:16.888Z,70.40
2022-11-07T02:30:43.723Z,70.91
2022-11-07T02:33:22.635Z,71.00
2022-11-07T02:35:51.668Z,71.36
2022-11-07T02:38:26.867Z,71.48
2022-11-07T02:41:16.957Z,71.61
2022-11-07T02:43:49.938Z,71.45
2022-11-07T02:46:16.985Z,72.22
2022-11-07T02:48:48.225Z,72.24
2022-11-07T02:51:15.249Z,71.99
2022-11-07T02:53:42.067Z,72.00
2022-11-07T02:56:09.667Z,72.21
2022-11-07T02:58:36.808Z,72.49
2022-11-07T03:01:07.095Z,72.75
2022-11-07T03:03:40.231Z,72.56
2022-11-07T03:06:08.962Z,72.27
2022-11-07T03:08:35.929Z,72.60
2022-11-07T03:11:02.948Z,72.98
2022-11-07T03:13:29.814Z,72.87
2022-11-07T03:15:56.611Z,73.09
2022-11-07T03:18:23.817Z,73.54
2022-11-07T03:20:50.791Z,73.36
2022-11-07T03:23:17.880Z,74.10
2022-11-07T03:25:44.891Z,73.98
2022-11-07T03:28:11.683Z,74.28
2022-11-07T03:30:38.485Z,74.60
2022-11-07T03:33:05.303Z,74.71
2022-11-07T03:35:32.079Z,74.91
2022-11-07T03:37:58.942Z,75.00
2022-11-07T03:40:25.862Z,75.34
2022-11-07T03:42:52.702Z,75.79
2022-11-07T03:45:19.546Z,75.43
2022-11-07T03:47:47.326Z,75.44
2022-11-07T03:50:19.059Z,75.63
2022-11-07T03:52:47.083Z,74.77
2022-11-07T03:55:18.241Z,74.87
2022-11-07T03:57:45.765Z,75.08
2022-11-07T04:00:14.588Z,75.29
2022-11-07T04:02:43.108Z,75.35
2022-11-07T04:05:10.759Z,75.37
2022-11-07T04:07:37.658Z,75.00
2022-11-07T04:10:04.940Z,74.94
2022-11-07T04:12:50.302Z,75.31
2022-11-07T04:15:35.472Z,75.40
2022-11-07T04:18:02.424Z,74.60
2022-11-07T04:20:29.637Z,74.99
2022-11-07T04:22:56.464Z,75.41
2022-11-07T04:25:43.215Z,75.07
2022-11-07T04:28:10.045Z,74.86
2022-11-07T04:30:36.810Z,75.06
2022-11-07T04:33:03.696Z,75.33
2022-11-07T04:35:33.387Z,75.61
2022-11-07T04:38:01.043Z,75.85
2022-11-07T04:40:29.000Z,75.88
2022-11-07T04:42:56.077Z,75.85
2022-11-07T04:45:23.283Z,76.00
2022-11-07T04:47:50.110Z,75.78
2022-11-07T04:50:20.075Z,75.42
2022-11-07T04:52:47.752Z,75.19
2022-11-07T04:55:22.965Z,75.53
2022-11-07T04:57:49.869Z,75.81
2022-11-07T05:00:18.563Z,75.55
2022-11-07T05:02:46.434Z,75.53
2022-11-07T05:05:13.268Z,75.77
2022-11-07T05:07:40.535Z,75.83
2022-11-07T05:10:12.311Z,75.46
2022-11-07T05:12:39.334Z,75.71
2022-11-07T05:15:07.567Z,75.31
2022-11-07T05:17:34.361Z,75.04
2022-11-07T05:20:01.136Z,75.28
2022-11-07T05:22:46.216Z,75.19
2022-11-07T05:25:12.988Z,75.27
2022-11-07T05:27:39.810Z,75.13
2022-11-07T05:30:07.376Z,74.53
2022-11-07T05:32:38.077Z,74.37
2022-11-07T05:35:06.014Z,74.62
2022-11-07T05:37:32.896Z,74.50
2022-11-07T05:39:59.766Z,74.96
2022-11-07T05:42:26.551Z,74.73
2022-11-07T05:44:53.379Z,75.01
2022-11-07T05:47:20.154Z,75.57
2022-11-07T05:49:46.944Z,75.69
2022-11-07T05:52:13.716Z,75.63
2022-11-07T05:54:40.539Z,76.04
2022-11-07T05:57:07.343Z,76.01
2022-11-07T05:59:34.140Z,76.09
2022-11-07T06:02:00.992Z,76.66
2022-11-07T06:04:27.820Z,76.75
2022-11-07T06:06:54.625Z,76.98
2022-11-07T06:09:21.401Z,76.83
2022-11-07T06:11:48.187Z,76.67
2022-11-07T06:14:14.992Z,76.64
2022-11-07T06:16:41.793Z,76.81
2022-11-07T06:19:08.570Z,77.08
2022-11-07T06:21:35.457Z,77.51
2022-11-07T06:24:03.382Z,77.64
2022-11-07T06:26:30.312Z,77.78
2022-11-07T06:28:57.096Z,77.72
2022-11-07T06:31:23.870Z,77.55
2022-11-07T06:33:51.575Z,77.26
2022-11-07T06:36:18.830Z,76.63
2022-11-07T06:38:45.747Z,76.67
2022-11-07T06:41:14.541Z,76.39
2022-11-07T06:43:41.700Z,76.35
2022-11-07T06:46:13.434Z,75.53
2022-11-07T06:48:40.632Z,75.76
2022-11-07T06:51:09.811Z,75.93
2022-11-07T06:53:37.053Z,76.59
2022-11-07T06:56:07.047Z,77.12
2022-11-07T06:58:34.632Z,76.86
2022-11-07T07:01:06.618Z,74.38
2022-11-07T07:03:33.466Z,74.59
2022-11-07T07:06:02.863Z,73.60
2022-11-07T07:08:30.183Z,72.43
2022-11-07T07:10:57.322Z,71.44
2022-11-07T07:13:24.196Z,71.22
2022-11-07T07:15:55.809Z,71.64
2022-11-07T07:18:23.899Z,71.22
2022-11-07T07:20:51.785Z,69.10
2022-11-07T07:23:20.803Z,69.13
2022-11-07T07:25:48.329Z,69.36
2022-11-07T07:28:15.144Z,68.01
2022-11-07T07:30:43.884Z,66.31
2022-11-07T07:33:14.433Z,68.92
2022-11-07T07:35:41.491Z,67.68
2022-11-07T07:38:08.282Z,65.82
2022-11-07T07:40:35.070Z,61.11
2022-11-07T07:43:01.850Z,61.08
2022-11-07T07:45:28.662Z,59.54
2022-11-07T07:48:02.284Z,59.00
2022-11-07T07:50:29.408Z,59.88
2022-11-07T07:52:57.861Z,58.38
2022-11-07T07:55:25.439Z,59.24
2022-11-07T07:57:52.260Z,57.52
2022-11-07T08:00:19.451Z,59.06
2022-11-07T08:02:46.267Z,56.18
2022-11-07T08:05:14.893Z,54.63
2022-11-07T08:07:49.916Z,54.71
2022-11-07T08:13:05.791Z,53.71
2022-11-07T08:15:32.657Z,55.00
2022-11-07T08:18:04.222Z,53.29
2022-11-07T08:20:31.528Z,50.60
2022-11-07T08:23:12.878Z,53.83
2022-11-07T08:25:49.475Z,51.78
2022-11-07T08:28:16.285Z,50.54
2022-11-07T08:30:43.061Z,52.19
2022-11-07T08:33:09.923Z,51.84
2022-11-07T08:35:42.107Z,51.54
2022-11-07T08:38:09.618Z,51.04
2022-11-07T08:40:36.484Z,50.24
2022-11-07T08:43:03.251Z,48.18
2022-11-07T08:45:30.068Z,47.81
2022-11-07T08:48:00.799Z,46.25
2022-11-07T08:50:27.939Z,45.97
2022-11-07T08:53:01.233Z,46.45
2022-11-07T08:55:29.530Z,46.20
2022-11-07T08:58:01.316Z,48.30
2022-11-07T09:00:28.851Z,45.68
2022-11-07T09:05:42.417Z,43.10
2022-11-07T09:08:09.211Z,41.37
2022-11-07T09:10:35.988Z,41.43
2022-11-07T09:13:02.838Z,39.44
2022-11-07T09:15:29.656Z,40.70
2022-11-07T09:18:02.399Z,42.31
2022-11-07T09:20:29.175Z,42.31
2022-11-07T09:22:57.573Z,43.78
2022-11-07T09:25:24.415Z,43.57
2022-11-07T09:27:54.461Z,44.14
2022-11-07T09:30:22.187Z,44.52
2022-11-07T09:32:48.973Z,42.63
2022-11-07T09:35:15.798Z,43.10
2022-11-07T09:37:42.799Z,41.85
2022-11-07T09:40:43.776Z,42.16
2022-11-07T09:43:50.590Z,41.73
2022-11-07T09:46:29.276Z,41.37
2022-11-07T09:49:25.601Z,40.07
2022-11-07T09:52:26.419Z,38.85
2022-11-07T09:55:09.190Z,39.97
2022-11-07T09:57:37.720Z,38.47
2022-11-07T10:00:15.423Z,39.70
2022-11-07T10:02:56.871Z,38.38
2022-11-07T10:05:54.344Z,39.91
2022-11-07T10:08:28.146Z,40.70
2022-11-07T10:11:09.211Z,37.16
2022-11-07T10:13:48.173Z,37.67
2022-11-07T10:16:51.788Z,37.37
2022-11-07T10:19:44.699Z,37.84
2022-11-07T10:22:29.475Z,37.56
2022-11-07T10:25:14.643Z,39.20
2022-11-07T10:27:41.424Z,40.17
2022-11-07T10:30:19.265Z,39.87
2022-11-07T10:33:06.837Z,38.68
2022-11-07T10:35:38.075Z,38.15
2022-11-07T10:38:24.979Z,37.65
2022-11-07T10:40:52.308Z,38.02
2022-11-07T10:43:33.898Z,37.49
2022-11-07T10:46:22.631Z,36.27
2022-11-07T10:48:57.580Z,35.12
2022-11-07T10:51:40.502Z,36.59
2022-11-07T10:54:22.280Z,38.20
2022-11-07T10:57:13.774Z,36.83
2022-11-07T10:59:55.963Z,36.90
2022-11-07T11:02:28.689Z,35.92
2022-11-07T11:05:00.303Z,36.03
2022-11-07T11:07:36.667Z,35.70
2022-11-07T11:10:18.997Z,37.01
2022-11-07T11:12:48.066Z,36.54
2022-11-07T11:15:19.226Z,35.46
2022-11-07T11:17:46.957Z,35.75
2022-11-07T11:20:40.454Z,37.55
2022-11-07T11:23:19.723Z,39.14
2022-11-07T11:25:50.159Z,39.80
2022-11-07T11:28:35.919Z,40.28
2022-11-07T11:31:22.235Z,38.79
2022-11-07T11:33:59.143Z,37.69
2022-11-07T11:36:31.920Z,35.99
2022-11-07T11:39:03.028Z,35.58
2022-11-07T11:41:48.391Z,36.09
2022-11-07T11:44:26.045Z,34.55
2022-11-07T11:47:08.284Z,31.50
2022-11-07T11:49:54.524Z,31.46
2022-11-07T11:52:24.076Z,30.49
2022-11-07T11:54:53.766Z,30.09
2022-11-07T11:57:42.723Z,29.46
2022-11-07T12:00:21.648Z,30.26
2022-11-07T12:03:06.152Z,30.67
2022-11-07T12:06:23.326Z,32.55
2022-11-07T12:09:17.297Z,35.54
2022-11-07T12:12:26.101Z,36.17
2022-11-07T12:15:03.606Z,36.71
2022-11-07T12:17:52.694Z,34.99
2022-11-07T12:20:34.145Z,31.50
2022-11-07T12:23:46.064Z,33.40
2022-11-07T12:26:34.764Z,32.38
2022-11-07T12:29:48.210Z,32.35
2022-11-07T12:32:45.011Z,30.71
2022-11-07T12:35:35.293Z,30.50
2022-11-07T12:38:15.984Z,31.04
2022-11-07T12:41:08.713Z,33.42
2022-11-07T12:44:04.744Z,34.21
2022-11-07T12:47:26.648Z,32.98
2022-11-07T12:50:02.159Z,33.62
2022-11-07T12:52:46.124Z,34.35
2022-11-07T12:55:40.088Z,35.94
2022-11-07T12:58:19.971Z,36.02
2022-11-07T13:00:47.560Z,36.83
2022-11-07T13:03:25.135Z,36.90
2022-11-07T13:06:09.134Z,37.29
2022-11-07T13:08:47.984Z,37.40
2022-11-07T13:11:27.912Z,37.39
2022-11-07T13:14:33.150Z,37.76
2022-11-07T13:17:27.560Z,36.69
2022-11-07T13:20:22.805Z,35.17
2022-11-07T13:22:52.994Z,34.43
2022-11-07T13:25:31.840Z,33.73
2022-11-07T13:27:58.577Z,35.13
2022-11-07T13:30:31.157Z,34.04
2022-11-07T13:32:59.556Z,35.12
2022-11-07T13:35:28.705Z,36.75
2022-11-07T13:38:15.568Z,35.58
2022-11-07T13:41:05.058Z,34.95
2022-11-07T13:43:56.378Z,37.03
2022-11-07T13:46:39.431Z,35.57
2022-11-07T13:49:16.706Z,34.22
2022-11-07T13:51:48.702Z,33.51
2022-11-07T13:54:31.324Z,31.40
2022-11-07T13:57:19.596Z,29.82
2022-11-07T14:00:05.519Z,30.23
2022-11-07T14:02:34.790Z,31.18
2022-11-07T14:05:18.702Z,31.11
2022-11-07T14:07:59.835Z,30.16
2022-11-07T14:10:40.266Z,29.75
2022-11-07T14:13:27.899Z,31.55
2022-11-07T14:16:02.468Z,34.46
2022-11-07T14:18:34.166Z,37.50
2022-11-07T14:21:01.453Z,40.09
2022-11-07T14:23:32.465Z,41.41
2022-11-07T14:26:01.888Z,42.63
2022-11-07T14:28:37.848Z,41.97
2022-11-07T14:31:16.788Z,41.37
2022-11-07T14:33:59.553Z,40.03
2022-11-07T14:36:27.300Z,38.74
2022-11-07T14:39:11.387Z,38.91
2022-11-07T14:41:43.731Z,37.25
2022-11-07T14:44:28.483Z,35.18
2022-11-07T14:47:04.308Z,34.64
2022-11-07T14:49:43.507Z,33.93
2022-11-07T14:52:26.483Z,36.56
2022-11-07T14:55:01.616Z,38.14
2022-11-07T14:57:28.807Z,40.05
2022-11-07T14:59:55.952Z,43.06
2022-11-07T15:02:32.217Z,44.40
2022-11-07T15:05:06.826Z,45.22
2022-11-07T15:07:48.388Z,46.42
2022-11-07T15:10:35.445Z,47.32
2022-11-07T15:13:06.363Z,47.68
2022-11-07T15:15:35.847Z,47.86
2022-11-07T15:18:05.834Z,47.98
2022-11-07T15:20:34.382Z,48.76
2022-11-07T15:23:13.502Z,49.37
2022-11-07T15:25:51.737Z,49.78
2022-11-07T15:28:18.958Z,50.36
2022-11-07T15:30:47.121Z,50.96
2022-11-07T15:33:19.157Z,52.26
2022-11-07T15:35:48.327Z,52.99
2022-11-07T15:38:23.201Z,54.12
2022-11-07T15:40:51.472Z,53.99
2022-11-07T15:43:18.875Z,54.35
2022-11-07T15:45:46.904Z,55.34
2022-11-07T15:48:21.346Z,56.06
2022-11-07T15:50:49.705Z,57.76
2022-11-07T15:53:26.608Z,58.76
2022-11-07T15:56:01.643Z,59.80
2022-11-07T15:58:30.120Z,60.53
2022-11-07T16:00:58.807Z,61.32
2022-11-07T16:03:27.956Z,61.91
2022-11-07T16:06:01.505Z,61.79
2022-11-07T16:08:30.130Z,62.65
2022-11-07T16:11:02.461Z,62.61
2022-11-07T16:13:29.772Z,62.85
2022-11-07T16:16:00.708Z,62.53
2022-11-07T16:18:27.889Z,62.95
2022-11-07T16:20:54.664Z,63.28
2022-11-07T16:23:21.641Z,63.40
2022-11-07T16:25:50.886Z,63.91
2022-11-07T16:28:29.648Z,63.92
2022-11-07T16:30:56.805Z,64.32
2022-11-07T16:33:25.061Z,64.92
2022-11-07T16:35:55.721Z,65.21
2022-11-07T16:38:24.898Z,65.64
2022-11-07T16:40:52.541Z,65.21
2022-11-07T16:43:20.169Z,65.55
2022-11-07T16:45:50.928Z,65.81
2022-11-07T16:48:24.876Z,66.53
2022-11-07T16:50:53.018Z,66.80
2022-11-07T16:53:21.174Z,67.15
2022-11-07T16:55:53.585Z,67.21
2022-11-07T16:58:29.032Z,67.69
2022-11-07T17:00:59.714Z,67.78
2022-11-07T17:03:27.014Z,67.52
2022-11-07T17:05:56.434Z,67.68
2022-11-07T17:08:27.192Z,67.42
2022-11-07T17:10:54.827Z,67.10
2022-11-07T17:13:23.045Z,66.96
2022-11-07T17:15:51.084Z,66.83
2022-11-07T17:18:25.536Z,66.85
2022-11-07T17:20:55.746Z,66.78
2022-11-07T17:23:29.682Z,66.94
2022-11-07T17:26:00.067Z,66.96
2022-11-07T17:28:26.922Z,67.24
2022-11-07T17:30:53.726Z,67.42
2022-11-07T17:33:20.525Z,67.40
2022-11-07T17:35:55.591Z,67.86
2022-11-07T17:38:22.354Z,68.12
2022-11-07T17:40:49.147Z,68.61
2022-11-07T17:43:15.924Z,68.53
2022-11-07T17:45:42.769Z,69.07
2022-11-07T17:48:10.914Z,69.37
2022-11-07T17:50:38.017Z,69.04
2022-11-07T17:53:04.817Z,69.99
2022-11-07T17:55:31.591Z,70.05
2022-11-07T17:57:58.406Z,69.80
2022-11-07T18:00:27.331Z,69.62
2022-11-07T18:02:54.287Z,69.61
2022-11-07T18:05:24.712Z,69.71
2022-11-07T18:07:53.695Z,69.76
2022-11-07T18:10:20.472Z,69.62
2022-11-07T18:12:47.377Z,69.84
2022-11-07T18:15:14.305Z,69.73
2022-11-07T18:17:41.493Z,69.96
2022-11-07T18:20:10.095Z,69.96
2022-11-07T18:22:37.611Z,70.29
2022-11-07T18:25:06.699Z,70.61
2022-11-07T18:27:34.457Z,70.43
2022-11-07T18:30:02.895Z,70.49
2022-11-07T18:32:35.721Z,70.77
2022-11-07T18:35:06.135Z,70.88
2022-11-07T18:37:33.703Z,70.96
2022-11-07T18:40:00.493Z,71.14
2022-11-07T18:42:29.030Z,71.13
2022-11-07T18:44:55.966Z,71.29
2022-11-07T18:47:22.932Z,71.42
2022-11-07T18:49:54.181Z,71.49
2022-11-07T18:52:24.121Z,71.15
2022-11-07T18:54:51.451Z,71.15
2022-11-07T18:57:18.271Z,71.37
2022-11-07T18:59:45.902Z,71.03
2022-11-07T19:02:12.899Z,71.12
2022-11-07T19:04:40.006Z,71.22
2022-11-07T19:07:06.809Z,71.11
2022-11-07T19:09:33.933Z,71.13
2022-11-07T19:12:01.359Z,71.23
2022-11-07T19:14:29.787Z,70.89
2022-11-07T19:16:57.460Z,71.42
2022-11-07T19:19:24.404Z,71.11
2022-11-07T19:21:51.230Z,71.27
2022-11-07T19:24:18.431Z,71.61
2022-11-07T19:26:45.695Z,72.20
2022-11-07T19:29:12.616Z,71.91
2022-11-07T19:31:39.446Z,71.80
2022-11-07T19:34:06.944Z,71.64
2022-11-07T19:36:34.126Z,71.69
2022-11-07T19:39:02.992Z,71.42
2022-11-07T19:41:30.090Z,71.70
2022-11-07T19:43:59.112Z,71.98
2022-11-07T19:46:26.099Z,72.05
2022-11-07T19:48:54.954Z,72.06
2022-11-07T19:51:23.097Z,72.27
2022-11-07T19:53:56.313Z,72.67
2022-11-07T19:56:25.999Z,73.10
2022-11-07T19:58:52.955Z,73.05
2022-11-07T20:01:26.538Z,73.69
2022-11-07T20:03:54.693Z,73.81
2022-11-07T20:06:32.185Z,74.18
2022-11-07T20:09:00.787Z,73.78
2022-11-07T20:11:28.698Z,73.69
2022-11-07T20:14:02.727Z,73.58
2022-11-07T20:16:30.493Z,73.34
2022-11-07T20:18:57.567Z,73.81
2022-11-07T20:21:25.590Z,73.85
2022-11-07T20:23:57.043Z,73.92
2022-11-07T20:26:27.459Z,73.49
2022-11-07T20:28:54.445Z,73.84
2022-11-07T20:31:26.067Z,73.67
2022-11-07T20:33:55.230Z,74.02
2022-11-07T20:36:23.003Z,73.96
2022-11-07T20:38:50.374Z,74.38
2022-11-07T20:41:18.085Z,74.09
2022-11-07T20:43:44.950Z,74.07
2022-11-07T20:46:14.974Z,73.85
2022-11-07T20:48:42.476Z,73.76
2022-11-07T20:51:12.385Z,73.88
2022-11-07T20:53:39.939Z,73.07
2022-11-07T20:56:08.298Z,73.00
2022-11-07T20:58:38.420Z,72.82
2022-11-07T21:01:08.166Z,73.56
2022-11-07T21:03:35.529Z,73.28
2022-11-07T21:06:02.380Z,73.43
2022-11-07T21:08:33.169Z,73.79
2022-11-07T21:11:02.884Z,73.74
2022-11-07T21:13:29.686Z,73.67
2022-11-07T21:15:56.463Z,73.63
2022-11-07T21:18:23.282Z,73.63
2022-11-07T21:20:50.436Z,74.02
2022-11-07T21:23:17.637Z,74.31
2022-11-07T21:25:48.288Z,74.45
2022-11-07T21:28:17.769Z,74.64
2022-11-07T21:30:46.228Z,74.46
2022-11-07T21:33:13.143Z,74.61
2022-11-07T21:35:42.820Z,74.53
2022-11-07T21:38:09.641Z,74.48
2022-11-07T21:40:36.810Z,74.55
2022-11-07T21:43:03.576Z,74.57
2022-11-07T21:45:30.394Z,74.60
2022-11-07T21:47:57.165Z,75.25
2022-11-07T21:50:43.813Z,75.19
2022-11-07T21:53:10.695Z,74.73
2022-11-07T21:55:37.464Z,74.82
2022-11-07T21:58:04.263Z,75.26
2022-11-07T22:00:35.821Z,75.01
2022-11-07T22:03:04.548Z,75.34
2022-11-07T22:05:31.450Z,75.33
2022-11-07T22:07:58.321Z,75.64
2022-11-07T22:10:25.175Z,75.40
2022-11-07T22:12:52.756Z,75.63
2022-11-07T22:15:19.593Z,75.31
2022-11-07T22:17:46.416Z,74.82
2022-11-07T22:20:13.223Z,74.93
2022-11-07T22:22:40.360Z,74.88
2022-11-07T22:25:07.600Z,75.15
2022-11-07T22:27:34.412Z,74.94
2022-11-07T22:30:01.192Z,75.01
2022-11-07T22:32:27.979Z,74.96
2022-11-07T22:34:54.772Z,75.10
2022-11-07T22:37:21.628Z,75.37
2022-11-07T22:39:48.391Z,75.40
2022-11-07T22:42:19.623Z,75.11
2022-11-07T22:44:49.462Z,75.19
2022-11-07T22:47:16.250Z,74.98
2022-11-07T22:49:43.013Z,74.87
2022-11-07T22:52:09.822Z,74.85
2022-11-07T22:54:36.800Z,73.96
2022-11-07T22:57:04.057Z,73.96
2022-11-07T22:59:31.237Z,74.15
2022-11-07T23:01:58.146Z,74.33
2022-11-07T23:04:29.975Z,74.56
2022-11-07T23:06:59.389Z,74.62
2022-11-07T23:09:26.170Z,74.70
2022-11-07T23:11:52.962Z,74.41
2022-11-07T23:14:21.474Z,74.46
2022-11-07T23:16:51.849Z,74.87
2022-11-07T23:19:22.358Z,75.27
2022-11-07T23:21:51.354Z,75.28
2022-11-07T23:24:18.362Z,75.13
2022-11-07T23:26:45.239Z,75.38
2022-11-07T23:29:20.166Z,75.59
2022-11-07T23:31:49.681Z,75.53
2022-11-07T23:34:18.704Z,75.55
2022-11-07T23:36:45.641Z,75.79
2022-11-07T23:39:19.878Z,76.18
2022-11-07T23:41:47.056Z,76.05
2022-11-07T23:44:15.214Z,75.85
2022-11-07T23:47:01.526Z,75.94
2022-11-07T23:49:47.656Z,76.15
2022-11-07T23:52:14.436Z,76.12
2022-11-07T23:54:59.949Z,76.26
2022-11-07T23:57:26.787Z,76.88
